Time;durP1;ratioP1;P1;durP2;ratioP2;P2;SDS_P1;SDS_P2;PMS_P1;PMS_P2;Temp;Humidity;BMP_temperature;BMP_pressure;BME280_temperature;BME280_humidity;BME280_pressure;Samples;Min_cycle;Max_cycle;Signal;HPM_P1;HPM_P2
2022/05/20 00:02:24;;;;;;;6.30;4.05;;;12.80;99.90;;;;;;5052534;28;20127;-77
2022/05/20 00:04:50;;;;;;;9.18;4.40;;;12.80;99.90;;;;;;5053046;28;20064;-77
2022/05/20 00:07:15;;;;;;;10.95;5.28;;;12.80;99.90;;;;;;5052807;28;20040;-77
2022/05/20 00:09:41;;;;;;;16.17;5.07;;;12.80;99.90;;;;;;5052788;28;20171;-77
2022/05/20 00:12:07;;;;;;;8.10;4.40;;;12.70;99.90;;;;;;5052903;28;20170;-78
2022/05/20 00:14:33;;;;;;;7.32;3.85;;;12.70;99.90;;;;;;5052950;28;20078;-77
2022/05/20 00:17:01;;;;;;;12.88;5.63;;;12.70;99.90;;;;;;5053064;28;20499;-77
2022/05/20 00:19:27;;;;;;;7.28;3.53;;;12.70;99.90;;;;;;5052685;28;20045;-77
2022/05/20 00:21:53;;;;;;;10.77;4.28;;;12.70;99.90;;;;;;5051501;28;20037;-78
2022/05/20 00:24:18;;;;;;;8.55;4.40;;;12.70;99.90;;;;;;5052528;28;20359;-77
2022/05/20 00:26:44;;;;;;;8.10;4.82;;;12.60;99.90;;;;;;5052246;28;20049;-77
2022/05/20 00:29:09;;;;;;;8.13;4.85;;;12.60;99.90;;;;;;5052985;28;20473;-77
2022/05/20 00:31:35;;;;;;;8.30;4.65;;;12.60;99.90;;;;;;5052253;28;20564;-77
2022/05/20 00:34:00;;;;;;;14.88;5.38;;;12.60;99.90;;;;;;5054224;28;20055;-77
2022/05/20 00:36:26;;;;;;;12.73;6.53;;;12.60;99.90;;;;;;5056266;28;20478;-76
2022/05/20 00:38:52;;;;;;;8.27;4.50;;;12.60;99.90;;;;;;5056131;28;20396;-77
2022/05/20 00:41:17;;;;;;;6.90;4.80;;;12.60;99.90;;;;;;5056350;28;20048;-77
2022/05/20 00:43:48;;;;;;;8.98;5.22;;;12.60;99.90;;;;;;5055999;28;20033;-77
2022/05/20 00:46:19;;;;;;;11.95;5.85;;;12.60;99.90;;;;;;5056032;28;20060;-77
2022/05/20 00:48:47;;;;;;;8.77;5.55;;;12.60;99.90;;;;;;5056409;28;20053;-77
2022/05/20 00:51:20;;;;;;;10.50;6.00;;;12.60;99.90;;;;;;5056116;28;20049;-77
2022/05/20 00:53:55;;;;;;;14.73;6.43;;;12.60;99.90;;;;;;5056414;28;20051;-76
2022/05/20 00:56:25;;;;;;;13.93;5.87;;;12.60;99.90;;;;;;5055919;28;20041;-77
2022/05/20 00:58:52;;;;;;;11.20;5.57;;;12.60;99.90;;;;;;5056144;28;20295;-77
2022/05/20 01:01:19;;;;;;;13.05;6.00;;;12.50;99.90;;;;;;5055637;28;20483;-77
2022/05/20 01:03:45;;;;;;;9.60;6.10;;;12.50;99.90;;;;;;5055953;28;20127;-77
2022/05/20 01:06:11;;;;;;;12.40;6.63;;;12.50;99.90;;;;;;5055955;28;20106;-77
2022/05/20 01:08:38;;;;;;;17.80;7.32;;;12.40;99.90;;;;;;5054923;28;20049;-76
2022/05/20 01:11:04;;;;;;;9.45;5.97;;;12.40;99.90;;;;;;5056144;28;20045;-77
2022/05/20 01:13:31;;;;;;;10.80;6.25;;;12.30;99.90;;;;;;5056212;28;20111;-77
2022/05/20 01:16:02;;;;;;;15.05;7.13;;;12.20;99.90;;;;;;5056129;28;20049;-77
2022/05/20 01:18:29;;;;;;;11.95;7.68;;;12.10;99.90;;;;;;5055974;28;20116;-77
2022/05/20 01:20:56;;;;;;;12.50;7.55;;;11.90;99.90;;;;;;5056042;28;20033;-77
2022/05/20 01:23:25;;;;;;;13.73;8.00;;;11.80;99.90;;;;;;5056223;28;20045;-77
2022/05/20 01:25:53;;;;;;;14.77;8.52;;;11.60;99.90;;;;;;5055817;28;20497;-77
2022/05/20 01:28:21;;;;;;;13.73;8.20;;;11.40;99.90;;;;;;5055981;28;20408;-77
2022/05/20 01:30:51;;;;;;;11.95;8.27;;;11.20;99.90;;;;;;5055931;28;20037;-77
2022/05/20 01:33:24;;;;;;;12.05;8.10;;;11.10;99.90;;;;;;5056070;28;20037;-77
2022/05/20 01:35:50;;;;;;;16.17;8.93;;;10.90;99.90;;;;;;5055923;28;20060;-77
2022/05/20 01:38:15;;;;;;;17.05;9.88;;;10.70;99.90;;;;;;5055977;28;20045;-77
2022/05/20 01:40:47;;;;;;;16.40;9.75;;;10.60;99.90;;;;;;5055604;28;20037;-77
2022/05/20 01:43:36;;;;;;;17.20;11.02;;;10.60;99.90;;;;;;5055390;28;20397;-77
2022/05/20 01:46:28;;;;;;;16.77;10.32;;;10.50;99.90;;;;;;5054800;28;20051;-77
2022/05/20 01:49:12;;;;;;;19.08;11.60;;;10.40;99.90;;;;;;5055597;28;20053;-77
2022/05/20 01:52:06;;;;;;;20.48;12.48;;;10.40;99.90;;;;;;5055403;28;20053;-77
2022/05/20 01:55:07;;;;;;;20.08;11.93;;;10.30;99.90;;;;;;5054279;28;20053;-77
2022/05/20 01:57:56;;;;;;;18.83;13.00;;;10.30;99.90;;;;;;5055484;28;20458;-77
2022/05/20 02:00:25;;;;;;;19.48;12.48;;;10.30;99.90;;;;;;5079576;23;20498;-79
2022/05/20 02:03:03;;;;;;;21.70;15.48;;;10.20;99.90;;;;;;5054111;28;20597;-79
2022/05/20 02:05:51;;;;;;;19.13;13.25;;;10.10;99.90;;;;;;5052485;28;20087;-80
2022/05/20 02:08:37;;;;;;;19.20;13.13;;;10.10;99.90;;;;;;5046627;28;20103;-80
2022/05/20 02:11:25;;;;;;;26.50;14.13;;;9.90;99.90;;;;;;5056055;28;20036;-80
2022/05/20 02:14:07;;;;;;;22.50;13.82;;;9.80;99.90;;;;;;5055112;28;20056;-80
2022/05/20 02:16:38;;;;;;;22.90;14.90;;;9.90;99.90;;;;;;5054348;28;20045;-80
2022/05/20 02:19:10;;;;;;;30.33;16.85;;;9.80;99.90;;;;;;5056765;28;20100;-80
2022/05/20 02:21:40;;;;;;;24.88;16.13;;;9.90;99.90;;;;;;5055711;28;20512;-81
2022/05/20 02:24:10;;;;;;;38.47;19.08;;;9.90;99.90;;;;;;5055964;28;20409;-80
2022/05/20 02:26:49;;;;;;;34.25;18.00;;;9.90;99.90;;;;;;5056416;28;20147;-79
2022/05/20 02:29:22;;;;;;;33.25;18.58;;;9.90;99.90;;;;;;5056108;28;20049;-80
2022/05/20 02:31:59;;;;;;;28.67;17.83;;;9.80;99.90;;;;;;5056062;28;20432;-81
2022/05/20 02:34:25;;;;;;;31.25;17.60;;;9.70;99.90;;;;;;5055525;28;20045;-80
2022/05/20 02:36:51;;;;;;;30.13;18.70;;;9.60;99.90;;;;;;5056235;28;20501;-81
2022/05/20 02:39:17;;;;;;;33.92;19.25;;;9.60;99.90;;;;;;5057667;28;20045;-81
2022/05/20 02:41:47;;;;;;;35.78;20.17;;;9.50;99.90;;;;;;5056764;28;20041;-80
2022/05/20 02:44:13;;;;;;;31.77;18.50;;;9.40;99.90;;;;;;5055683;28;20138;-80
2022/05/20 02:46:40;;;;;;;31.38;20.17;;;9.40;99.90;;;;;;5055388;28;20076;-79
2022/05/20 02:49:06;;;;;;;30.70;19.05;;;9.30;99.90;;;;;;5055462;28;20052;-80
2022/05/20 02:51:32;;;;;;;31.85;19.23;;;9.30;99.90;;;;;;5055736;28;20084;-80
2022/05/20 02:53:58;;;;;;;32.55;19.95;;;9.20;99.90;;;;;;5054667;28;20044;-81
2022/05/20 02:56:24;;;;;;;41.42;20.88;;;9.10;99.90;;;;;;5055171;28;20080;-80
2022/05/20 03:04:19;;;;;;;40.28;20.30;;;9.30;99.90;;;;;;4997496;28;20105;-79
2022/05/20 03:06:51;;;;;;;37.47;20.95;;;9.10;99.90;;;;;;4997544;28;20124;-81
2022/05/20 03:09:19;;;;;;;36.00;20.48;;;9.10;99.90;;;;;;5012863;28;20042;-81
2022/05/20 03:11:45;;;;;;;34.55;20.40;;;9.10;99.90;;;;;;4998746;28;20073;-80
2022/05/20 03:14:13;;;;;;;39.65;21.27;;;9.00;99.90;;;;;;4997614;28;20433;-80
2022/05/20 03:16:39;;;;;;;36.60;20.15;;;8.90;99.90;;;;;;4998572;28;20073;-80
2022/05/20 03:19:08;;;;;;;38.03;19.52;;;8.90;99.90;;;;;;5013478;28;20065;-79
2022/05/20 03:21:36;;;;;;;42.90;21.05;;;8.90;99.90;;;;;;4998337;28;20425;-79
2022/05/20 03:24:02;;;;;;;40.15;20.42;;;8.80;99.90;;;;;;4998048;28;20065;-81
2022/05/20 03:26:29;;;;;;;34.85;19.92;;;8.80;99.90;;;;;;4995871;28;20046;-80
2022/05/20 03:28:57;;;;;;;45.45;21.83;;;8.80;99.90;;;;;;4996888;28;20450;-81
2022/05/20 03:31:23;;;;;;;49.90;22.60;;;8.80;99.90;;;;;;4996688;28;20049;-81
2022/05/20 03:33:48;;;;;;;37.72;20.95;;;8.70;99.90;;;;;;4996270;28;20046;-81
2022/05/20 03:36:14;;;;;;;42.28;21.10;;;8.60;99.90;;;;;;4998584;28;20048;-81
2022/05/20 03:38:40;;;;;;;50.28;23.55;;;8.60;99.90;;;;;;4997902;28;20501;-80
2022/05/20 03:41:06;;;;;;;40.22;22.35;;;8.60;99.90;;;;;;4998582;28;20042;-80
2022/05/20 03:43:35;;;;;;;50.50;23.58;;;8.70;99.90;;;;;;4999178;28;20046;-79
2022/05/20 03:46:01;;;;;;;56.40;25.88;;;8.80;99.90;;;;;;4999124;28;20042;-80
2022/05/20 03:48:27;;;;;;;53.05;24.83;;;8.80;99.90;;;;;;4999086;28;20116;-80
2022/05/20 03:50:52;;;;;;;47.47;23.52;;;8.80;99.90;;;;;;4982746;28;20084;-80
2022/05/20 03:53:18;;;;;;;64.60;26.90;;;8.80;99.90;;;;;;5002851;28;20124;-79
2022/05/20 03:55:44;;;;;;;56.40;27.80;;;8.70;99.90;;;;;;5033294;28;20026;-81
2022/05/20 03:58:14;;;;;;;57.92;27.02;;;8.80;99.90;;;;;;5017589;28;20061;-79
2022/05/20 04:03:25;;;;;;;53.42;25.73;;;8.90;99.90;;;;;;5057571;28;20033;-80
2022/05/20 04:05:51;;;;;;;57.47;28.33;;;8.90;99.90;;;;;;5057553;28;20044;-81
2022/05/20 04:08:17;;;;;;;60.58;28.67;;;8.90;99.90;;;;;;5057743;28;20021;-80
2022/05/20 04:10:42;;;;;;;53.90;27.63;;;8.90;99.90;;;;;;5061184;28;20068;-80
2022/05/20 04:13:08;;;;;;;55.05;26.80;;;8.90;99.90;;;;;;5061309;28;20045;-80
2022/05/20 04:15:34;;;;;;;62.50;27.95;;;8.90;99.90;;;;;;5061026;28;20025;-81
2022/05/20 04:17:59;;;;;;;61.10;29.08;;;9.00;99.90;;;;;;5061221;28;20021;-81
2022/05/20 04:20:25;;;;;;;60.63;28.73;;;9.10;99.90;;;;;;5044767;28;20045;-81
2022/05/20 04:22:51;;;;;;;59.15;28.83;;;9.20;99.90;;;;;;5039390;28;20049;-80
2022/05/20 04:25:16;;;;;;;57.42;29.77;;;9.20;99.90;;;;;;5038488;28;20132;-80
2022/05/20 04:27:42;;;;;;;76.45;30.52;;;9.40;99.90;;;;;;5038110;28;20393;-80
2022/05/20 04:30:08;;;;;;;58.35;28.70;;;9.50;99.90;;;;;;5037935;28;20417;-80
2022/05/20 04:32:34;;;;;;;58.60;29.10;;;9.50;99.90;;;;;;5038162;28;20033;-81
2022/05/20 04:35:00;;;;;;;62.00;30.55;;;9.60;99.90;;;;;;5038168;28;20046;-80
2022/05/20 04:37:27;;;;;;;60.90;30.05;;;9.90;99.90;;;;;;5038213;28;20319;-80
2022/05/20 04:39:53;;;;;;;60.03;30.52;;;10.10;99.90;;;;;;5055210;28;20045;-80
2022/05/20 04:47:48;;;;;;;55.45;27.52;;;10.10;99.90;;;;;;5037625;28;20049;-80
2022/05/20 04:50:14;;;;;;;50.50;27.90;;;10.40;99.90;;;;;;5038055;28;20098;-81
2022/05/20 04:52:40;;;;;;;48.65;27.13;;;10.80;99.90;;;;;;5037388;28;20037;-80
2022/05/20 04:55:06;;;;;;;39.95;23.77;;;11.30;99.90;;;;;;5037658;28;20044;-80
2022/05/20 04:57:33;;;;;;;29.75;18.92;;;11.70;99.90;;;;;;5019911;28;20359;-80
2022/05/20 05:00:13;;;;;;;36.90;20.50;;;11.60;99.90;;;;;;5037021;28;20049;-79
2022/05/20 05:02:40;;;;;;;28.50;17.65;;;11.50;99.90;;;;;;5036860;28;20501;-81
2022/05/20 05:05:08;;;;;;;24.50;17.35;;;11.90;99.90;;;;;;5036339;28;20128;-80
2022/05/20 05:07:39;;;;;;;25.67;16.08;;;12.60;99.90;;;;;;5037029;28;20037;-79
2022/05/20 05:10:06;;;;;;;18.70;12.20;;;13.20;99.90;;;;;;5035678;28;20414;-79
2022/05/20 05:12:37;;;;;;;15.02;9.70;;;13.90;99.90;;;;;;5036102;28;20049;-80
2022/05/20 05:15:05;;;;;;;15.20;9.25;;;14.90;99.90;;;;;;5035672;28;20049;-80
2022/05/20 05:20:26;;;;;;;14.35;9.02;;;15.70;99.90;;;;;;5034521;28;20079;-81
2022/05/20 05:22:53;;;;;;;11.10;7.85;;;16.30;99.90;;;;;;5035762;28;20382;-80
2022/05/20 05:25:22;;;;;;;16.83;9.40;;;16.80;99.90;;;;;;5050599;28;20502;-80
2022/05/20 05:27:48;;;;;;;10.88;8.10;;;17.90;99.90;;;;;;5050446;28;20072;-81
2022/05/20 05:30:18;;;;;;;10.88;7.30;;;17.30;99.90;;;;;;5034963;28;20091;-80
2022/05/20 05:32:44;;;;;;;12.82;7.90;;;18.60;99.90;;;;;;5035224;28;20049;-81
2022/05/20 05:35:13;;;;;;;13.43;7.25;;;18.40;99.90;;;;;;5035328;28;20577;-80
2022/05/20 05:37:41;;;;;;;10.32;7.63;;;18.90;99.90;;;;;;5035190;28;20042;-79
2022/05/20 05:40:10;;;;;;;10.88;6.90;;;19.20;99.90;;;;;;5034649;28;20493;-81
2022/05/20 05:42:36;;;;;;;9.65;7.28;;;19.30;99.90;;;;;;5035844;28;20041;-79
2022/05/20 05:45:03;;;;;;;10.50;6.20;;;19.60;99.90;;;;;;5051923;28;20041;-79
2022/05/20 05:47:29;;;;;;;10.40;6.78;;;20.10;99.90;;;;;;5036771;28;20152;-80
2022/05/20 05:49:54;;;;;;;11.05;6.78;;;20.50;99.90;;;;;;5037569;28;20480;-81
2022/05/20 05:52:20;;;;;;;9.45;6.40;;;20.50;99.90;;;;;;5036845;28;20512;-79
2022/05/20 05:54:46;;;;;;;9.15;5.95;;;20.70;99.90;;;;;;5036252;28;20107;-81
2022/05/20 05:57:11;;;;;;;10.65;6.40;;;21.10;99.90;;;;;;5035131;28;20048;-81
2022/05/20 05:59:37;;;;;;;11.20;6.68;;;20.70;95.00;;;;;;5033532;28;20049;-81
2022/05/20 06:02:04;;;;;;;11.13;5.88;;;20.40;94.80;;;;;;5035561;28;20064;-80
2022/05/20 06:04:30;;;;;;;12.85;6.40;;;20.70;92.50;;;;;;5035192;28;20045;-80
2022/05/20 06:06:56;;;;;;;9.70;5.68;;;21.20;80.30;;;;;;5034666;28;20046;-80
2022/05/20 06:09:22;;;;;;;11.48;5.95;;;21.80;59.60;;;;;;5035059;28;20129;-80
2022/05/20 06:11:49;;;;;;;9.85;5.88;;;21.90;53.60;;;;;;5034951;28;20037;-80
2022/05/20 06:14:15;;;;;;;11.77;5.70;;;22.00;58.90;;;;;;5035058;28;20382;-81
2022/05/20 06:16:41;;;;;;;8.70;4.95;;;22.20;59.30;;;;;;5034933;28;20457;-80
2022/05/20 06:19:07;;;;;;;9.27;4.20;;;22.90;43.20;;;;;;5035349;28;20561;-80
2022/05/20 06:21:32;;;;;;;11.85;5.20;;;23.00;36.60;;;;;;5034965;28;20109;-81
2022/05/20 06:24:00;;;;;;;10.65;4.78;;;23.30;24.30;;;;;;5034620;28;20069;-80
2022/05/20 06:26:29;;;;;;;7.63;3.17;;;23.10;31.10;;;;;;5035145;28;20052;-81
2022/05/20 06:28:55;;;;;;;6.47;2.38;;;23.50;25.60;;;;;;5035178;28;20068;-81
2022/05/20 06:31:20;;;;;;;9.95;3.00;;;23.50;17.40;;;;;;5049880;28;20498;-79
2022/05/20 06:33:46;;;;;;;7.55;2.67;;;22.80;31.20;;;;;;5033351;28;20037;-81
2022/05/20 06:41:40;;;;;;;7.68;2.85;;;20.80;55.20;;;;;;5048939;28;20030;-81
2022/05/20 06:44:07;;;;;;;7.30;2.85;;;21.00;55.30;;;;;;5057104;28;20045;-78
2022/05/20 06:46:33;;;;;;;8.52;3.28;;;21.60;60.90;;;;;;5043221;28;20044;-80
2022/05/20 06:49:00;;;;;;;10.65;4.00;;;21.80;40.60;;;;;;5036050;28;20485;-80
2022/05/20 06:51:28;;;;;;;7.97;3.60;;;20.10;54.80;;;;;;5050259;28;20096;-80
2022/05/20 06:53:56;;;;;;;9.70;3.70;;;20.40;66.70;;;;;;5034524;28;20038;-80
2022/05/20 06:56:25;;;;;;;5.57;3.28;;;20.60;53.00;;;;;;5033840;28;20113;-81
2022/05/20 06:58:51;;;;;;;9.70;3.30;;;20.20;51.80;;;;;;5033974;28;20037;-81
2022/05/20 07:01:17;;;;;;;8.27;3.63;;;20.60;58.40;;;;;;5033367;28;20057;-80
2022/05/20 07:03:43;;;;;;;9.05;3.35;;;21.50;35.30;;;;;;5033886;28;20083;-81
2022/05/20 07:06:11;;;;;;;9.02;4.10;;;20.70;46.90;;;;;;5032320;28;20075;-80
2022/05/20 07:08:38;;;;;;;7.38;4.00;;;19.30;62.80;;;;;;5033583;28;20410;-79
2022/05/20 07:11:07;;;;;;;9.65;3.05;;;18.90;68.70;;;;;;5033873;28;20515;-80
2022/05/20 07:13:32;;;;;;;10.68;4.55;;;19.30;66.40;;;;;;5032523;28;20042;-80
2022/05/20 07:15:59;;;;;;;8.52;3.90;;;19.20;73.20;;;;;;5033668;28;20042;-81
2022/05/20 07:18:25;;;;;;;10.98;4.13;;;19.50;65.00;;;;;;5048643;28;20046;-80
2022/05/20 07:20:51;;;;;;;9.32;3.95;;;19.10;66.50;;;;;;5031981;28;20486;-80
2022/05/20 07:23:16;;;;;;;6.75;3.35;;;18.60;74.30;;;;;;5030939;28;20056;-81
2022/05/20 07:25:42;;;;;;;8.98;3.70;;;17.80;80.30;;;;;;5030914;28;20080;-81
2022/05/20 07:28:08;;;;;;;10.07;4.50;;;17.90;86.00;;;;;;5029655;28;20061;-80
2022/05/20 07:30:34;;;;;;;6.80;3.15;;;19.00;77.40;;;;;;5031306;28;20037;-79
2022/05/20 07:32:59;;;;;;;7.20;3.35;;;19.20;71.20;;;;;;5030977;28;20041;-80
2022/05/20 07:35:25;;;;;;;8.57;4.05;;;19.40;62.00;;;;;;5031073;28;20045;-80
2022/05/20 07:37:51;;;;;;;9.77;3.88;;;19.00;61.30;;;;;;5031003;28;20057;-80
2022/05/20 07:40:18;;;;;;;11.18;4.15;;;18.30;78.60;;;;;;5031129;28;20037;-80
2022/05/20 07:42:43;;;;;;;10.40;3.92;;;17.90;80.60;;;;;;5029286;28;20052;-81
2022/05/20 07:45:11;;;;;;;9.73;3.58;;;17.90;79.80;;;;;;5030518;28;20041;-80
2022/05/20 07:47:39;;;;;;;7.88;2.72;;;17.90;76.90;;;;;;5029546;28;20128;-78
2022/05/20 07:50:06;;;;;;;7.68;2.97;;;18.50;81.30;;;;;;5030992;28;20137;-79
2022/05/20 07:55:25;;;;;;;7.30;3.40;;;20.70;43.20;;;;;;5030900;28;20053;-80
2022/05/20 07:57:52;;;;;;;7.40;3.00;;;21.40;52.40;;;;;;5030641;28;20111;-79
2022/05/20 08:00:19;;;;;;;7.70;2.90;;;22.30;32.40;;;;;;5029873;28;20053;-80
2022/05/20 08:02:45;;;;;;;9.05;2.80;;;21.90;39.20;;;;;;5030403;28;20058;-81
2022/05/20 08:05:11;;;;;;;7.70;2.88;;;22.40;30.20;;;;;;5030718;28;20045;-80
2022/05/20 08:07:41;;;;;;;9.13;2.78;;;22.40;24.30;;;;;;5030465;28;20037;-81
2022/05/20 08:10:19;;;;;;;6.13;2.50;;;22.40;21.40;;;;;;5030648;28;20068;-82
2022/05/20 08:12:45;;;;;;;7.47;3.28;;;22.50;8.60;;;;;;5029951;28;20053;-80
2022/05/20 08:15:12;;;;;;;7.32;3.60;;;20.90;25.90;;;;;;5024497;28;20053;-80
2022/05/20 08:17:40;;;;;;;7.95;4.05;;;20.10;42.70;;;;;;5030400;28;20445;-80
2022/05/20 08:20:09;;;;;;;7.95;3.67;;;20.60;41.60;;;;;;5030320;28;20128;-80
2022/05/20 08:22:36;;;;;;;9.10;4.63;;;21.10;44.20;;;;;;5030103;28;20417;-80
2022/05/20 08:25:02;;;;;;;8.00;4.35;;;22.10;31.10;;;;;;5030628;28;20065;-80
2022/05/20 08:27:30;;;;;;;7.13;3.30;;;22.40;25.50;;;;;;5028929;28;20042;-80
2022/05/20 08:29:56;;;;;;;8.25;1.90;;;22.30;28.90;;;;;;5031360;28;20041;-79
2022/05/20 08:32:22;;;;;;;9.85;2.53;;;22.70;24.20;;;;;;5036774;28;20060;-80
2022/05/20 08:34:49;;;;;;;4.75;2.00;;;22.60;13.00;;;;;;5042556;28;20121;-80
2022/05/20 08:37:15;;;;;;;5.85;1.88;;;21.70;15.50;;;;;;5042135;28;20037;-79
2022/05/20 08:39:41;;;;;;;7.75;2.30;;;22.10;13.00;;;;;;5039833;28;20053;-80
2022/05/20 08:42:18;;;;;;;7.60;2.40;;;21.40;12.00;;;;;;5035017;28;20084;-80
2022/05/20 08:44:44;;;;;;;5.18;2.80;;;21.30;16.20;;;;;;5048205;28;20038;-80
2022/05/20 08:47:15;;;;;;;6.95;2.08;;;21.10;19.80;;;;;;5054316;28;20021;-78
2022/05/20 08:49:44;;;;;;;5.82;1.90;;;21.00;21.20;;;;;;5054154;28;20038;-80
2022/05/20 08:52:10;;;;;;;8.35;2.58;;;21.00;21.10;;;;;;5054155;28;20052;-79
2022/05/20 08:54:36;;;;;;;8.45;2.30;;;21.10;22.20;;;;;;5055829;28;20029;-80
2022/05/20 08:57:34;;;;;;;9.02;2.80;;;21.70;18.20;;;;;;5058620;28;20080;-80
2022/05/20 09:00:04;;;;;;;4.82;2.30;;;23.20;10.80;;;;;;5035749;28;20046;-80
2022/05/20 09:02:30;;;;;;;6.22;2.10;;;23.70;1.20;;;;;;5058063;28;20045;-80
2022/05/20 09:04:55;;;;;;;8.63;2.30;;;22.40;5.30;;;;;;5058423;28;20022;-79
2022/05/20 09:07:22;;;;;;;7.28;2.55;;;22.40;13.30;;;;;;5053369;28;20072;-80
2022/05/20 09:09:55;;;;;;;6.70;2.67;;;22.10;7.20;;;;;;5050185;28;20141;-80
2022/05/20 09:12:48;;;;;;;7.88;2.72;;;22.00;11.80;;;;;;5035829;28;20048;-80
2022/05/20 09:18:08;;;;;;;7.43;2.58;;;21.80;11.10;;;;;;5033456;28;20056;-79
2022/05/20 09:20:46;;;;;;;7.50;2.80;;;21.20;14.40;;;;;;5033185;28;20045;-79
2022/05/20 09:23:13;;;;;;;6.38;2.35;;;21.20;15.90;;;;;;5032311;28;20484;-80
2022/05/20 09:26:04;;;;;;;6.25;2.33;;;21.90;15.90;;;;;;5033163;28;20055;-81
2022/05/20 09:28:44;;;;;;;8.27;2.22;;;22.50;18.70;;;;;;5033526;28;20111;-80
2022/05/20 09:31:25;;;;;;;7.57;2.70;;;22.40;1.70;;;;;;5033177;28;20069;-80
2022/05/20 09:34:07;;;;;;;7.07;2.30;;;23.10;3.50;;;;;;5031728;28;20139;-80
2022/05/20 09:36:37;;;;;;;6.88;2.38;;;23.90;1.00;;;;;;5031565;28;20145;-80
2022/05/20 09:39:21;;;;;;;7.03;2.50;;;24.00;1.00;;;;;;5032963;28;20045;-79
2022/05/20 09:41:53;;;;;;;5.97;2.10;;;22.80;1.00;;;;;;5032458;28;20128;-80
2022/05/20 09:44:23;;;;;;;6.60;2.58;;;23.40;1.00;;;;;;5031695;28;20128;-80
2022/05/20 09:46:59;;;;;;;6.85;3.17;;;23.60;1.00;;;;;;5031855;28;20049;-80
2022/05/20 09:49:30;;;;;;;5.55;2.85;;;23.60;1.00;;;;;;5032297;28;20458;-80
2022/05/20 09:51:59;;;;;;;6.10;3.50;;;23.50;1.00;;;;;;5030800;28;20405;-79
2022/05/20 09:54:35;;;;;;;6.55;3.22;;;22.90;1.00;;;;;;5032292;28;20057;-80
2022/05/20 09:57:14;;;;;;;11.07;3.47;;;22.80;5.70;;;;;;5031758;28;20037;-80
2022/05/20 09:59:54;;;;;;;7.60;3.15;;;22.40;13.20;;;;;;5031497;28;20045;-79
2022/05/20 10:02:25;;;;;;;5.05;2.00;;;22.40;12.70;;;;;;5032047;28;20072;-80
2022/05/20 10:05:24;;;;;;;5.90;2.15;;;21.40;1.00;;;;;;5031824;28;20080;-80
2022/05/20 10:07:58;;;;;;;7.75;3.35;;;21.40;6.10;;;;;;5031198;28;20041;-80
2022/05/20 10:10:42;;;;;;;9.38;4.43;;;21.20;13.80;;;;;;5031963;28;20049;-80
2022/05/20 10:13:16;;;;;;;9.13;2.90;;;21.10;16.00;;;;;;5030869;28;20328;-81
2022/05/20 10:15:46;;;;;;;7.78;3.65;;;21.80;10.90;;;;;;5032170;28;20096;-79
2022/05/20 10:18:32;;;;;;;5.43;3.22;;;21.60;13.70;;;;;;5032162;28;20045;-81
2022/05/20 10:21:14;;;;;;;9.52;3.75;;;21.70;6.70;;;;;;5031881;28;20136;-78
2022/05/20 10:24:19;;;;;;;7.05;4.00;;;21.80;14.90;;;;;;5031625;28;20041;-79
2022/05/20 10:27:04;;;;;;;7.35;4.20;;;21.90;4.20;;;;;;5032065;28;20497;-78
2022/05/20 10:32:43;;;;;;;7.13;4.22;;;22.50;10.70;;;;;;5030598;28;20168;-78
2022/05/20 10:35:13;;;;;;;6.53;4.05;;;22.30;5.00;;;;;;5033068;28;20045;-78
2022/05/20 10:37:49;;;;;;;8.48;5.03;;;22.20;6.10;;;;;;5031428;28;20041;-78
2022/05/20 10:40:20;;;;;;;;;;;22.10;2.00;;;;;;5031787;28;20476;-77
2022/05/20 10:43:07;;;;;;;14.63;3.90;;;22.40;3.00;;;;;;5032092;28;20043;-77
2022/05/20 10:48:45;;;;;;;7.53;4.13;;;22.00;3.60;;;;;;5016225;28;20482;-78
2022/05/20 10:51:37;;;;;;;7.15;3.95;;;21.60;3.70;;;;;;5030505;28;20107;-78
2022/05/20 10:54:38;;;;;;;7.50;4.18;;;22.10;3.40;;;;;;5031080;28;20068;-78
2022/05/20 10:57:06;;;;;;;7.75;3.72;;;22.10;1.00;;;;;;5030548;28;20546;-77
2022/05/20 10:59:54;;;;;;;5.43;3.40;;;21.70;1.00;;;;;;5030018;28;20080;-77
2022/05/20 11:02:43;;;;;;;9.55;4.20;;;21.80;1.00;;;;;;5030482;28;20541;-77
2022/05/20 11:05:37;;;;;;;6.82;4.53;;;21.40;2.10;;;;;;5030499;28;20046;-77
2022/05/20 11:08:02;;;;;;;9.55;4.50;;;21.10;6.30;;;;;;5030550;28;20075;-78
2022/05/20 11:10:55;;;;;;;7.78;4.20;;;21.80;4.00;;;;;;5030379;28;20057;-78
2022/05/20 11:13:41;;;;;;;5.38;3.38;;;22.80;1.40;;;;;;5030587;28;20049;-78
2022/05/20 11:16:40;;;;;;;7.20;3.53;;;23.10;1.00;;;;;;5028927;28;20449;-77
2022/05/20 11:19:30;;;;;;;6.60;3.30;;;23.30;1.00;;;;;;5030632;28;20045;-78
2022/05/20 11:22:17;;;;;;;5.13;2.83;;;22.90;1.00;;;;;;5030303;28;20052;-77
2022/05/20 11:25:01;;;;;;;5.85;2.83;;;23.20;1.00;;;;;;5030076;28;20044;-78
2022/05/20 11:28:13;;;;;;;7.53;2.60;;;23.50;1.00;;;;;;5030645;28;20045;-77
2022/05/20 11:31:07;;;;;;;4.85;2.60;;;23.60;1.00;;;;;;4969221;28;20105;-77
2022/05/20 11:34:02;;;;;;;6.93;3.72;;;23.50;1.00;;;;;;5029518;28;20065;-78
2022/05/20 11:37:06;;;;;;;7.47;3.55;;;24.00;1.00;;;;;;5029989;28;20124;-78
2022/05/20 11:39:40;;;;;;;6.25;3.72;;;24.10;1.00;;;;;;5028537;28;20049;-77
2022/05/20 11:42:33;;;;;;;5.80;2.95;;;24.40;1.00;;;;;;5030377;28;20045;-78
2022/05/20 11:45:21;;;;;;;5.28;2.50;;;24.20;1.00;;;;;;5028750;28;20133;-76
2022/05/20 11:48:08;;;;;;;4.45;2.40;;;24.50;1.00;;;;;;5030199;28;20045;-78
2022/05/20 11:51:12;;;;;;;5.70;2.65;;;25.20;1.00;;;;;;5029098;28;20046;-76
2022/05/20 11:53:50;;;;;;;6.60;3.05;;;25.70;1.00;;;;;;5029781;28;20111;-78
2022/05/20 11:56:53;;;;;;;5.88;3.78;;;25.90;1.00;;;;;;5026549;28;20045;-78
2022/05/20 11:59:40;;;;;;;5.65;3.30;;;26.00;1.00;;;;;;5044199;28;20045;-77
2022/05/20 12:02:11;;;;;;;5.22;3.10;;;25.70;1.00;;;;;;5028827;28;20513;-78
2022/05/20 12:04:39;;;;;;;7.47;2.70;;;25.70;1.00;;;;;;5028783;28;20618;-77
2022/05/20 12:07:09;;;;;;;7.53;2.92;;;25.50;1.00;;;;;;5029088;28;20072;-77
2022/05/20 12:09:44;;;;;;;6.38;2.90;;;26.00;1.00;;;;;;5026890;28;20046;-78
2022/05/20 12:12:50;;;;;;;7.93;2.80;;;25.10;1.00;;;;;;5028488;28;20111;-77
2022/05/20 12:15:19;;;;;;;4.65;2.78;;;24.70;1.00;;;;;;5028464;28;20128;-78
2022/05/20 12:17:50;;;;;;;4.22;2.70;;;24.60;1.00;;;;;;5028574;28;20529;-78
2022/05/20 12:26:19;;;;;;;5.13;2.22;;;23.10;1.00;;;;;;5028394;28;20053;-78
2022/05/20 12:28:44;;;;;;;4.68;2.10;;;22.60;1.00;;;;;;5028248;28;20496;-77
2022/05/20 12:31:28;;;;;;;5.68;2.22;;;23.10;1.00;;;;;;5031733;28;20041;-78
2022/05/20 12:33:56;;;;;;;4.88;3.00;;;22.90;1.00;;;;;;5032138;28;20073;-77
2022/05/20 12:36:28;;;;;;;6.80;3.13;;;22.70;1.00;;;;;;5031886;28;20045;-78
2022/05/20 12:39:14;;;;;;;6.57;2.90;;;22.60;1.00;;;;;;5032120;28;20615;-77
2022/05/20 12:41:47;;;;;;;4.82;2.78;;;23.20;1.00;;;;;;5030384;28;20107;-78
2022/05/20 12:44:16;;;;;;;6.35;4.03;;;23.50;1.00;;;;;;5030969;28;20057;-76
2022/05/20 12:47:19;;;;;;;8.93;4.70;;;23.10;1.00;;;;;;5033841;28;20390;-77
2022/05/20 12:49:48;;;;;;;6.82;5.03;;;23.20;1.00;;;;;;5032825;28;20048;-78
2022/05/20 12:52:19;;;;;;;6.75;5.20;;;23.30;1.00;;;;;;5033896;28;20045;-77
2022/05/20 12:54:48;;;;;;;6.78;5.07;;;23.60;1.00;;;;;;5033298;28;20053;-78
2022/05/20 12:57:18;;;;;;;9.20;4.20;;;22.90;1.00;;;;;;5011155;28;20134;-78
2022/05/20 12:59:49;;;;;;;5.32;2.88;;;22.40;1.00;;;;;;5012091;28;20060;-78
2022/05/20 13:02:16;;;;;;;7.28;2.85;;;22.20;1.00;;;;;;5012195;28;20054;-77
2022/05/20 13:05:00;;;;;;;4.85;2.72;;;21.90;1.00;;;;;;5027604;28;20061;-78
2022/05/20 13:07:26;;;;;;;5.70;3.08;;;21.70;1.00;;;;;;5029213;28;20433;-77
2022/05/20 13:09:51;;;;;;;4.85;2.75;;;21.50;1.00;;;;;;5013487;28;20124;-77
2022/05/20 13:12:20;;;;;;;7.88;4.47;;;21.40;1.00;;;;;;5029057;28;20568;-78
2022/05/20 13:15:06;;;;;;;8.52;5.10;;;21.20;1.00;;;;;;5014075;28;20487;-77
2022/05/20 13:17:32;;;;;;;9.40;5.20;;;20.80;1.00;;;;;;5030608;28;20486;-78
2022/05/20 13:19:59;;;;;;;10.80;6.05;;;20.70;1.00;;;;;;5032011;28;20042;-78
2022/05/20 13:22:27;;;;;;;7.20;5.78;;;20.70;1.00;;;;;;5031992;28;20053;-77
2022/05/20 13:24:55;;;;;;;8.85;5.55;;;20.70;1.00;;;;;;5031915;28;20050;-78
2022/05/20 13:27:21;;;;;;;8.27;5.47;;;20.30;1.00;;;;;;5031685;28;20050;-76
2022/05/20 13:29:48;;;;;;;10.30;4.93;;;21.40;1.00;;;;;;5030971;28;20049;-79
2022/05/20 13:32:27;;;;;;;8.55;5.57;;;20.00;1.00;;;;;;5026253;28;20133;-77
2022/05/20 13:34:54;;;;;;;7.78;4.15;;;20.10;1.80;;;;;;5012991;28;20058;-77
2022/05/20 13:37:28;;;;;;;7.60;4.40;;;20.00;1.00;;;;;;5011816;28;20061;-77
2022/05/20 13:40:00;;;;;;;7.75;4.85;;;19.80;1.00;;;;;;5013312;28;20069;-78
2022/05/20 13:42:31;;;;;;;9.38;5.00;;;19.60;5.40;;;;;;5010757;28;20050;-78
2022/05/20 13:45:05;;;;;;;9.90;5.97;;;19.50;6.10;;;;;;5011280;28;20530;-78
2022/05/20 13:50:15;;;;;;;8.07;5.18;;;19.20;8.00;;;;;;5010296;28;20061;-78
2022/05/20 13:52:43;;;;;;;6.72;4.78;;;19.10;12.10;;;;;;5013758;28;20034;-79